createdAt,value
2023-01-23T00:01:12.783Z,9.63
2023-01-23T00:03:39.707Z,8.15
2023-01-23T00:06:13.279Z,8.48
2023-01-23T00:08:41.409Z,8.73
2023-01-23T00:11:10.935Z,8.15
2023-01-23T00:13:38.360Z,8.27
2023-01-23T00:16:17.239Z,8.50
2023-01-23T00:18:44.984Z,8.68
2023-01-23T00:21:14.133Z,9.63
2023-01-23T00:23:46.948Z,9.20
2023-01-23T00:26:16.779Z,8.45
2023-01-23T00:28:46.271Z,9.27
2023-01-23T00:31:19.584Z,8.32
2023-01-23T00:33:48.905Z,8.15
2023-01-23T00:36:15.989Z,7.68
2023-01-23T00:38:43.459Z,7.57
2023-01-23T00:41:10.409Z,7.82
2023-01-23T00:43:37.301Z,7.72
2023-01-23T00:46:04.705Z,7.95
2023-01-23T00:48:33.113Z,8.40
2023-01-23T00:51:00.004Z,7.32
2023-01-23T00:53:27.575Z,7.72
2023-01-23T00:55:55.575Z,7.90
2023-01-23T00:58:22.527Z,7.57
2023-01-23T01:00:49.483Z,7.55
2023-01-23T01:03:17.694Z,8.40
2023-01-23T01:05:44.573Z,8.85
2023-01-23T01:08:11.611Z,7.40
2023-01-23T01:10:42.035Z,7.70
2023-01-23T01:13:09.880Z,7.40
2023-01-23T01:15:38.124Z,8.85
2023-01-23T01:18:05.225Z,7.60
2023-01-23T01:20:32.100Z,8.05
2023-01-23T01:23:00.702Z,8.25
2023-01-23T01:25:27.796Z,7.68
2023-01-23T01:27:56.346Z,7.97
2023-01-23T01:30:25.522Z,8.40
2023-01-23T01:32:52.484Z,8.25
2023-01-23T01:35:20.444Z,7.32
2023-01-23T01:37:48.304Z,6.50
2023-01-23T01:40:22.898Z,7.00
2023-01-23T01:42:57.371Z,7.10
2023-01-23T01:45:59.363Z,7.63
2023-01-23T01:49:05.636Z,8.00
2023-01-23T01:51:39.794Z,7.80
2023-01-23T01:54:12.265Z,8.95
2023-01-23T01:56:45.236Z,7.55
2023-01-23T01:59:13.331Z,7.22
2023-01-23T02:01:42.759Z,6.80
2023-01-23T02:04:10.147Z,7.97
2023-01-23T02:06:37.213Z,8.00
2023-01-23T02:09:12.028Z,8.13
2023-01-23T02:11:39.242Z,8.65
2023-01-23T02:14:06.651Z,7.93
2023-01-23T02:16:41.019Z,8.25
2023-01-23T02:19:47.745Z,8.25
2023-01-23T02:22:34.441Z,8.07
2023-01-23T02:25:29.063Z,7.55
2023-01-23T02:27:56.144Z,8.90
2023-01-23T02:30:23.864Z,8.45
2023-01-23T02:32:53.495Z,10.73
2023-01-23T02:35:28.873Z,10.13
2023-01-23T02:38:04.176Z,8.20
2023-01-23T02:40:36.769Z,8.65
2023-01-23T02:43:07.435Z,9.43
2023-01-23T02:45:35.907Z,9.27
2023-01-23T02:48:06.173Z,7.85
2023-01-23T02:50:33.133Z,10.18
2023-01-23T02:53:00.476Z,9.45
2023-01-23T02:55:31.792Z,10.55
2023-01-23T02:58:20.368Z,10.73
2023-01-23T03:00:47.701Z,9.77
2023-01-23T03:03:16.153Z,8.63
2023-01-23T03:05:43.102Z,10.02
2023-01-23T03:08:11.043Z,9.75
2023-01-23T03:10:37.919Z,8.88
2023-01-23T03:13:07.461Z,9.25
2023-01-23T03:28:31.324Z,9.27
2023-01-23T03:30:58.814Z,9.80
2023-01-23T03:33:25.928Z,9.38
2023-01-23T03:35:52.860Z,9.88
2023-01-23T03:38:19.932Z,8.32
2023-01-23T03:41:08.841Z,9.27
2023-01-23T03:43:36.198Z,9.80
2023-01-23T03:46:03.097Z,8.82
2023-01-23T03:48:31.292Z,9.35
2023-01-23T03:50:58.257Z,7.85
2023-01-23T03:53:25.277Z,8.55
2023-01-23T03:55:53.138Z,8.43
2023-01-23T03:58:20.535Z,8.80
2023-01-23T04:00:48.528Z,8.77
2023-01-23T04:03:16.277Z,9.05
2023-01-23T04:05:43.114Z,8.65
2023-01-23T04:08:10.027Z,10.00
2023-01-23T04:10:37.045Z,11.18
2023-01-23T04:13:10.477Z,10.47
2023-01-23T04:15:37.893Z,9.15
2023-01-23T04:18:06.739Z,10.18
2023-01-23T04:20:33.790Z,9.60
2023-01-23T04:23:00.675Z,10.18
2023-01-23T04:25:29.476Z,9.07
2023-01-23T04:27:56.666Z,8.77
2023-01-23T04:30:23.526Z,10.68
2023-01-23T04:32:51.381Z,9.63
2023-01-23T04:35:19.783Z,10.65
2023-01-23T04:37:46.943Z,10.00
2023-01-23T04:40:14.147Z,11.45
2023-01-23T04:42:51.752Z,9.05
2023-01-23T04:45:30.738Z,10.48
2023-01-23T04:48:15.937Z,9.35
2023-01-23T04:50:43.395Z,8.85
2023-01-23T04:53:11.382Z,9.85
2023-01-23T04:55:38.932Z,10.43
2023-01-23T04:58:11.517Z,9.98
2023-01-23T05:00:38.890Z,10.82
2023-01-23T05:03:06.882Z,9.88
2023-01-23T05:05:33.897Z,8.93
2023-01-23T05:08:01.581Z,9.93
2023-01-23T05:10:30.089Z,9.48
2023-01-23T05:13:01.669Z,9.25
2023-01-23T05:15:30.801Z,9.68
2023-01-23T05:17:58.037Z,10.18
2023-01-23T05:20:25.010Z,10.65
2023-01-23T05:22:55.275Z,11.10
2023-01-23T05:25:31.644Z,8.88
2023-01-23T05:28:00.212Z,8.85
2023-01-23T05:30:27.526Z,9.20
2023-01-23T05:33:06.757Z,10.60
2023-01-23T05:35:33.711Z,9.68
2023-01-23T05:38:01.491Z,9.48
2023-01-23T05:40:28.445Z,10.65
2023-01-23T05:43:17.334Z,10.10
2023-01-23T05:46:20.099Z,9.68
2023-01-23T05:48:51.902Z,9.98
2023-01-23T05:51:20.607Z,9.80
2023-01-23T05:53:47.964Z,9.45
2023-01-23T05:56:16.433Z,9.65
2023-01-23T05:59:05.387Z,8.93
2023-01-23T06:01:55.410Z,7.85
2023-01-23T06:04:40.976Z,9.77
2023-01-23T06:07:20.224Z,8.98
2023-01-23T06:09:51.369Z,9.38
2023-01-23T06:12:18.293Z,8.70
2023-01-23T06:14:45.166Z,8.80
2023-01-23T06:17:12.781Z,7.80
2023-01-23T06:19:39.658Z,9.77
2023-01-23T06:22:06.871Z,8.52
2023-01-23T06:24:45.751Z,8.57
2023-01-23T06:27:12.732Z,8.75
2023-01-23T06:29:39.620Z,8.52
2023-01-23T06:32:07.551Z,8.75
2023-01-23T06:34:36.709Z,8.75
2023-01-23T06:37:05.757Z,8.52
2023-01-23T06:39:34.343Z,9.25
2023-01-23T06:42:02.760Z,9.18
2023-01-23T06:44:29.799Z,9.23
2023-01-23T06:46:56.904Z,10.25
2023-01-23T06:49:25.123Z,8.65
2023-01-23T06:51:52.953Z,8.77
2023-01-23T06:54:20.108Z,10.70
2023-01-23T06:56:47.402Z,9.38
2023-01-23T06:59:14.706Z,8.23
2023-01-23T07:01:43.351Z,9.77
2023-01-23T07:04:10.313Z,9.05
2023-01-23T07:06:39.085Z,8.27
2023-01-23T07:09:06.256Z,9.38
2023-01-23T07:11:33.764Z,9.02
2023-01-23T07:14:01.049Z,9.35
2023-01-23T07:16:29.379Z,9.38
2023-01-23T07:19:01.721Z,6.57
2023-01-23T07:21:32.639Z,7.30
2023-01-23T07:23:59.542Z,8.07
2023-01-23T07:26:26.431Z,8.27
2023-01-23T07:28:53.790Z,8.32
2023-01-23T07:31:20.816Z,7.68
2023-01-23T07:33:48.168Z,8.63
2023-01-23T07:36:15.192Z,9.13
2023-01-23T07:38:42.089Z,8.35
2023-01-23T07:41:09.327Z,8.30
2023-01-23T07:43:36.210Z,8.63
2023-01-23T07:46:03.787Z,8.50
2023-01-23T07:48:30.690Z,8.18
2023-01-23T07:51:01.611Z,8.43
2023-01-23T07:53:28.676Z,8.60
2023-01-23T07:55:55.607Z,8.10
2023-01-23T07:58:22.708Z,7.57
2023-01-23T08:00:49.689Z,8.50
2023-01-23T08:03:16.764Z,7.80
2023-01-23T08:05:49.370Z,8.30
2023-01-23T08:08:16.536Z,8.07
2023-01-23T08:10:43.985Z,9.27
2023-01-23T08:13:11.827Z,10.18
2023-01-23T08:15:39.040Z,9.05
2023-01-23T08:18:05.965Z,9.73
2023-01-23T08:20:32.916Z,8.43
2023-01-23T08:23:02.280Z,10.60
2023-01-23T08:25:29.927Z,10.63
2023-01-23T08:27:57.450Z,8.20
2023-01-23T08:30:24.528Z,9.15
2023-01-23T08:32:51.589Z,9.10
2023-01-23T08:35:18.570Z,8.65
2023-01-23T08:37:45.623Z,9.55
2023-01-23T08:40:13.012Z,8.50
2023-01-23T08:42:41.212Z,8.50
2023-01-23T08:45:08.986Z,9.38
2023-01-23T08:47:36.993Z,8.48
2023-01-23T08:50:05.247Z,7.93
2023-01-23T08:52:32.155Z,8.82
2023-01-23T08:54:59.215Z,8.27
2023-01-23T08:57:26.333Z,8.45
2023-01-23T08:59:53.264Z,9.82
2023-01-23T09:02:22.046Z,8.60
2023-01-23T09:04:49.413Z,9.05
2023-01-23T09:07:16.375Z,8.85
2023-01-23T09:09:43.307Z,8.23
2023-01-23T09:12:10.208Z,9.80
2023-01-23T09:14:38.575Z,8.13
2023-01-23T09:17:06.277Z,7.65
2023-01-23T09:19:33.520Z,9.13
2023-01-23T09:22:00.390Z,8.25
2023-01-23T09:24:27.261Z,7.93
2023-01-23T09:26:54.234Z,9.35
2023-01-23T09:29:21.119Z,8.52
2023-01-23T09:31:48.138Z,7.65
2023-01-23T09:34:17.015Z,7.90
2023-01-23T09:36:44.463Z,8.43
2023-01-23T09:39:12.184Z,7.90
2023-01-23T09:41:40.443Z,8.18
2023-01-23T09:44:31.900Z,8.95
2023-01-23T09:47:07.026Z,7.25
2023-01-23T09:49:33.794Z,8.18
2023-01-23T09:52:06.425Z,9.00
2023-01-23T09:54:46.706Z,8.05
2023-01-23T09:57:36.863Z,8.43
2023-01-23T10:00:15.715Z,8.63
2023-01-23T10:02:44.631Z,9.18
2023-01-23T10:05:17.025Z,8.88
2023-01-23T10:08:02.032Z,8.85
2023-01-23T10:10:40.382Z,8.38
2023-01-23T10:13:11.416Z,8.15
2023-01-23T10:15:57.209Z,8.90
2023-01-23T10:18:32.828Z,9.15
2023-01-23T10:21:21.033Z,9.60
2023-01-23T10:24:08.953Z,9.60
2023-01-23T10:26:46.477Z,9.98
2023-01-23T10:29:24.280Z,9.80
2023-01-23T10:31:57.373Z,10.15
2023-01-23T10:34:34.914Z,13.60
2023-01-23T10:37:22.335Z,8.85
2023-01-23T10:39:55.036Z,10.45
2023-01-23T10:42:25.695Z,8.75
2023-01-23T10:44:53.169Z,10.43
2023-01-23T10:47:32.792Z,8.75
2023-01-23T10:50:00.320Z,8.93
2023-01-23T10:52:35.325Z,8.57
2023-01-23T10:55:04.332Z,9.77
2023-01-23T10:57:46.316Z,10.05
2023-01-23T11:00:30.439Z,9.63
2023-01-23T11:03:22.539Z,9.90
2023-01-23T11:06:00.788Z,10.85
2023-01-23T11:08:29.575Z,9.85
2023-01-23T11:11:14.823Z,11.18
2023-01-23T11:13:47.277Z,10.40
2023-01-23T11:16:19.636Z,9.68
2023-01-23T11:18:54.730Z,10.63
2023-01-23T11:21:28.725Z,9.25
2023-01-23T11:24:41.483Z,10.10
2023-01-23T11:27:28.513Z,10.82
2023-01-23T11:30:14.075Z,10.57
2023-01-23T11:33:00.776Z,12.27
2023-01-23T11:35:50.098Z,10.18
2023-01-23T11:38:30.636Z,12.05
2023-01-23T11:40:58.117Z,11.43
2023-01-23T11:43:25.096Z,11.23
2023-01-23T11:46:02.080Z,10.82
2023-01-23T11:48:34.968Z,9.45
2023-01-23T11:51:20.647Z,11.48
2023-01-23T11:53:52.176Z,9.98
2023-01-23T11:56:49.133Z,9.60
2023-01-23T11:59:43.182Z,9.25
2023-01-23T12:02:13.012Z,11.93
2023-01-23T12:04:52.052Z,10.82
2023-01-23T12:07:21.537Z,11.80
2023-01-23T12:10:07.151Z,10.25
2023-01-23T12:13:14.798Z,14.63
2023-01-23T12:15:44.694Z,9.55
2023-01-23T12:18:26.823Z,13.65
2023-01-23T12:21:06.018Z,11.98
2023-01-23T12:24:08.119Z,12.07
2023-01-23T12:26:41.245Z,12.25
2023-01-23T12:29:46.632Z,11.85
2023-01-23T12:32:51.321Z,11.98
2023-01-23T12:35:33.169Z,12.77
2023-01-23T12:38:23.332Z,11.25
2023-01-23T12:40:56.221Z,10.93
2023-01-23T12:43:39.573Z,12.20
2023-01-23T12:46:11.961Z,14.13
2023-01-23T12:48:43.310Z,13.60
2023-01-23T12:51:21.208Z,12.23
2023-01-23T12:53:52.701Z,15.02
2023-01-23T12:56:33.396Z,12.23
2023-01-23T12:59:11.177Z,14.10
2023-01-23T13:02:05.781Z,14.85
2023-01-23T13:04:57.054Z,13.40
2023-01-23T13:07:42.198Z,14.30
2023-01-23T13:10:51.876Z,15.77
2023-01-23T13:13:20.538Z,16.00
2023-01-23T13:16:12.908Z,15.85
2023-01-23T13:18:59.320Z,17.02
2023-01-23T13:21:45.712Z,16.52
2023-01-23T13:24:59.695Z,15.73
2023-01-23T13:27:55.846Z,15.80
2023-01-23T13:30:26.188Z,17.83
2023-01-23T13:33:01.406Z,16.23
2023-01-23T13:35:40.223Z,15.43
2023-01-23T13:38:22.329Z,14.48
2023-01-23T13:41:04.900Z,15.38
2023-01-23T13:43:52.964Z,13.65
2023-01-23T14:22:01.047Z,10.80
2023-01-23T14:24:42.607Z,12.75
2023-01-23T14:27:21.801Z,14.60
2023-01-23T14:30:00.676Z,13.52
2023-01-23T14:32:33.914Z,15.15
2023-01-23T14:35:01.709Z,16.20
2023-01-23T14:37:31.462Z,15.70
2023-01-23T14:40:09.736Z,15.52
2023-01-23T14:42:39.326Z,15.48
2023-01-23T14:45:10.789Z,16.38
2023-01-23T14:47:45.461Z,19.08
2023-01-23T14:50:20.046Z,17.05
2023-01-23T14:52:57.740Z,17.52
2023-01-23T14:55:29.735Z,17.70
2023-01-23T14:58:01.528Z,13.82
2023-01-23T15:00:29.445Z,16.98
2023-01-23T15:02:56.777Z,17.15
2023-01-23T15:05:30.545Z,16.60
2023-01-23T15:08:18.343Z,18.00
2023-01-23T15:10:49.124Z,15.63
2023-01-23T15:14:01.587Z,14.35
2023-01-23T15:30:37.042Z,16.73
2023-01-23T15:33:20.633Z,15.52
2023-01-23T15:35:47.623Z,14.93
2023-01-23T15:38:17.908Z,16.15
2023-01-23T15:40:44.793Z,15.07
2023-01-23T15:43:18.786Z,16.23
2023-01-23T15:45:46.295Z,15.85
2023-01-23T15:48:13.270Z,15.25
2023-01-23T15:50:40.222Z,15.57
2023-01-23T15:53:14.416Z,16.02
2023-01-23T15:55:41.481Z,14.20
2023-01-23T15:58:14.013Z,15.20
2023-01-23T16:00:41.108Z,14.85
2023-01-23T16:03:08.081Z,17.27
2023-01-23T16:05:37.362Z,14.30
2023-01-23T16:08:06.500Z,12.77
2023-01-23T16:10:38.715Z,15.45
2023-01-23T16:13:07.713Z,13.52
2023-01-23T16:15:35.894Z,13.90
2023-01-23T16:18:04.705Z,14.32
2023-01-23T16:20:40.561Z,15.30
2023-01-23T16:23:15.269Z,15.02
2023-01-23T16:25:45.491Z,12.77
2023-01-23T16:28:15.318Z,14.57
2023-01-23T16:30:42.926Z,14.88
2023-01-23T16:33:10.046Z,14.82
2023-01-23T16:35:37.361Z,13.05
2023-01-23T16:38:05.316Z,13.57
2023-01-23T16:40:33.141Z,15.52
2023-01-23T16:43:02.812Z,14.57
2023-01-23T16:45:32.230Z,13.57
2023-01-23T16:47:59.216Z,14.52
2023-01-23T16:50:34.661Z,14.48
2023-01-23T16:53:04.504Z,11.85
2023-01-23T16:55:44.582Z,12.05
2023-01-23T16:58:19.515Z,13.27
2023-01-23T17:00:46.879Z,14.07
2023-01-23T17:03:22.856Z,14.05
2023-01-23T17:05:49.809Z,13.18
2023-01-23T17:08:21.694Z,12.63
2023-01-23T17:10:52.063Z,14.88
2023-01-23T17:13:21.460Z,13.23
2023-01-23T17:15:52.464Z,12.20
2023-01-23T17:18:28.137Z,12.05
2023-01-23T17:20:56.038Z,11.98
2023-01-23T17:23:24.121Z,13.32
2023-01-23T17:26:00.448Z,11.70
2023-01-23T17:28:27.614Z,9.68
2023-01-23T17:30:55.781Z,11.00
2023-01-23T17:33:31.740Z,9.80
2023-01-23T17:36:00.728Z,11.35
2023-01-23T17:38:34.603Z,9.15
2023-01-23T17:41:01.921Z,11.38
2023-01-23T17:43:29.554Z,10.70
2023-01-23T17:45:56.636Z,10.75
2023-01-23T17:48:27.950Z,11.18
2023-01-23T17:50:55.304Z,10.35
2023-01-23T17:53:23.926Z,9.32
2023-01-23T17:55:52.715Z,10.40
2023-01-23T17:58:20.852Z,9.45
2023-01-23T18:00:51.153Z,9.75
2023-01-23T18:03:21.924Z,9.38
2023-01-23T18:05:48.870Z,10.18
2023-01-23T18:08:18.192Z,9.68
2023-01-23T18:10:47.207Z,10.30
2023-01-23T18:14:02.579Z,10.00
2023-01-23T18:16:36.420Z,10.43
2023-01-23T18:19:21.572Z,10.30
2023-01-23T18:21:53.856Z,10.65
2023-01-23T18:24:26.937Z,8.48
2023-01-23T18:27:12.655Z,8.73
2023-01-23T18:30:16.848Z,8.52
2023-01-23T18:33:07.967Z,8.23
2023-01-23T18:35:57.162Z,8.20
2023-01-23T18:38:52.173Z,8.10
2023-01-23T18:41:24.809Z,9.70
2023-01-23T18:44:24.643Z,8.57
2023-01-23T18:46:51.665Z,7.72
2023-01-23T18:49:32.479Z,8.80
2023-01-23T18:52:11.505Z,8.73
2023-01-23T18:54:47.202Z,9.68
2023-01-23T18:57:26.036Z,8.43
2023-01-23T19:00:01.877Z,9.23
2023-01-23T19:02:45.240Z,8.10
2023-01-23T19:05:15.998Z,7.95
2023-01-23T19:07:45.235Z,7.63
2023-01-23T19:10:21.537Z,8.90
2023-01-23T19:13:12.823Z,7.07
2023-01-23T19:16:10.952Z,7.97
2023-01-23T19:18:59.717Z,7.25
2023-01-23T19:21:34.512Z,7.97
2023-01-23T19:24:03.599Z,7.85
2023-01-23T19:26:36.056Z,7.38
2023-01-23T19:29:19.970Z,7.65
2023-01-23T19:32:03.631Z,7.85
2023-01-23T19:34:31.812Z,8.20
2023-01-23T19:36:58.686Z,7.45
2023-01-23T19:39:25.752Z,8.20
2023-01-23T19:41:53.489Z,7.80
2023-01-23T19:44:24.358Z,8.18
2023-01-23T19:46:51.996Z,6.82
2023-01-23T19:49:19.164Z,6.60
2023-01-23T19:51:46.498Z,6.95
2023-01-23T19:54:15.646Z,7.95
2023-01-23T19:56:42.716Z,7.10
2023-01-23T19:59:09.998Z,7.03
2023-01-23T20:01:49.714Z,7.93
2023-01-23T20:04:20.819Z,7.32
2023-01-23T20:06:54.289Z,7.13
2023-01-23T20:09:21.529Z,6.90
2023-01-23T20:11:49.117Z,7.60
2023-01-23T20:14:16.280Z,7.03
2023-01-23T20:16:43.699Z,6.63
2023-01-23T20:19:15.319Z,7.40
2023-01-23T20:21:42.666Z,6.97
2023-01-23T20:24:09.666Z,7.45
2023-01-23T20:26:36.756Z,6.63
2023-01-23T20:29:04.424Z,7.13
2023-01-23T20:31:32.352Z,7.53
2023-01-23T20:33:59.479Z,7.60
2023-01-23T20:36:26.292Z,7.65
2023-01-23T20:38:53.312Z,7.65
2023-01-23T20:41:21.025Z,8.35
2023-01-23T20:43:48.445Z,7.20
2023-01-23T20:46:16.536Z,8.20
2023-01-23T20:48:45.347Z,8.07
2023-01-23T20:51:14.214Z,8.82
2023-01-23T20:53:41.612Z,8.65
2023-01-23T20:56:17.197Z,7.90
2023-01-23T20:59:04.954Z,7.70
2023-01-23T21:01:57.540Z,7.97
2023-01-23T21:04:27.402Z,7.75
2023-01-23T21:06:54.614Z,8.45
2023-01-23T21:09:21.908Z,7.55
2023-01-23T21:11:50.670Z,7.35
2023-01-23T21:14:17.943Z,6.93
2023-01-23T21:16:44.870Z,6.47
2023-01-23T21:19:11.831Z,7.95
2023-01-23T21:21:39.320Z,6.90
2023-01-23T21:24:07.154Z,7.63
2023-01-23T21:26:35.083Z,7.97
2023-01-23T21:29:02.300Z,8.02
2023-01-23T21:31:33.161Z,7.20
2023-01-23T21:34:01.680Z,7.78
2023-01-23T21:36:28.768Z,7.90
2023-01-23T21:38:56.129Z,7.68
2023-01-23T21:41:23.227Z,8.70
2023-01-23T21:43:50.323Z,8.38
2023-01-23T21:46:17.188Z,7.18
2023-01-23T21:48:44.177Z,8.02
2023-01-23T21:51:13.985Z,7.63
2023-01-23T21:53:42.632Z,7.55
2023-01-23T21:56:10.940Z,8.05
2023-01-23T21:58:38.949Z,7.30
2023-01-23T22:01:26.708Z,7.25
2023-01-23T22:03:53.634Z,6.43
2023-01-23T22:06:20.531Z,8.07
2023-01-23T22:08:47.686Z,7.07
2023-01-23T22:11:14.726Z,7.00
2023-01-23T22:13:41.684Z,7.43
2023-01-23T22:16:08.884Z,6.82
2023-01-23T22:18:35.765Z,7.97
2023-01-23T22:21:04.683Z,9.10
2023-01-23T22:23:32.479Z,8.35
2023-01-23T22:26:07.642Z,8.35
2023-01-23T22:28:35.670Z,8.27
2023-01-23T22:31:07.799Z,7.72
2023-01-23T22:33:40.492Z,6.88
2023-01-23T22:36:09.766Z,8.07
2023-01-23T22:38:36.609Z,7.78
2023-01-23T22:41:05.657Z,8.25
2023-01-23T22:43:34.021Z,8.20
2023-01-23T22:46:08.282Z,7.28
2023-01-23T22:48:35.797Z,8.05
2023-01-23T22:51:08.721Z,9.02
2023-01-23T22:53:35.616Z,8.70
2023-01-23T22:56:06.298Z,8.15
2023-01-23T22:58:34.076Z,9.43
2023-01-23T23:01:01.516Z,7.50
2023-01-23T23:03:34.908Z,8.25
2023-01-23T23:06:08.457Z,8.10
2023-01-23T23:08:35.745Z,8.73
2023-01-23T23:11:03.660Z,8.88
2023-01-23T23:13:33.159Z,8.20
2023-01-23T23:16:05.270Z,8.80
2023-01-23T23:18:32.782Z,8.30
2023-01-23T23:21:06.232Z,10.23
2023-01-23T23:23:33.069Z,8.18
2023-01-23T23:26:00.475Z,7.65
2023-01-23T23:28:28.276Z,7.05
2023-01-23T23:30:55.167Z,8.20
2023-01-23T23:33:22.689Z,7.72
2023-01-23T23:35:49.805Z,8.63
2023-01-23T23:38:17.093Z,9.57
2023-01-23T23:40:43.994Z,15.02
2023-01-23T23:43:10.899Z,12.27
2023-01-23T23:45:39.089Z,8.85
2023-01-23T23:48:06.189Z,9.00
2023-01-23T23:50:33.743Z,8.70
2023-01-23T23:53:00.720Z,8.68
2023-01-23T23:55:27.581Z,8.02
2023-01-23T23:57:54.446Z,7.72
